New Berlin, NY (13411)

12:43 AM EST on December 29, 2014 (GMT -0500)
APRSWXNET New Berlin NY US | Change Station
CLOSE
Current Station
Personal Weather Station
Location: New Lisbon, NY
Elevation: 1092 ft
Nearby Weather Stations

Elev 1092 ft 42.58 °N, 75.33 °W | Updated 35 minutes ago

Mostly Cloudy
Mostly Cloudy
29 °F
Feels Like 29 °F
N
0
Wind Variable Wind from SW
Gusts 1.0 mph

Today
High -- | Low -- °F
--% Chance of Precip.
Yesterday
High -- | Low -- °F
Precip. -- in
7:31 AM 4:36 PM
First Quarter, 55% visible
Pressure 30.09 in
Visibility 10.0 miles
Clouds Mostly Cloudy 3100 ft
Mostly Cloudy 3900 ft
Overcast 6500 ft
Windchill 29 °F
Dew Point 24 °F
Humidity 81%
Rainfall 0.48 in
Snow Depth Not available.
UV 0 out of 12
Pollen .10 out of 12
Air Quality Not available.
Flu Activity Not available.
METAR KRME 290453Z AUTO 27005KT 10SM BKN031 BKN039 OVC065 01/M03 A3008 RMK AO2 SLP188 T00111033 400890006

More Conditions Fewer Conditions

Pressure 30.09 in
Visibility 10.0 miles
Clouds Mostly Cloudy 3100 ft
Mostly Cloudy 3900 ft
Overcast 6500 ft
Windchill 29 °F
Dew Point 24 °F
Humidity 81%
Rainfall 0.48 in
Snow Depth Not available.
UV 0 out of 12
Pollen .10 out of 12
Air Quality Not available.
Flu Activity Not available.
METAR KRME 290453Z AUTO 27005KT 10SM BKN031 BKN039 OVC065 01/M03 A3008 RMK AO2 SLP188 T00111033 400890006

More Conditions Fewer Conditions

10-Day Weather Forecast

Almanac

Astronomy

Dec. 29, 2014 Rise Set
Actual Time
Civil Twilight
Nautical Twilight
Astronomical Twilight
Moon
Length of Visible Light
Length of Day
Tomorrow will be .
, % of the Moon is Illuminated

Today's Extremes

State Highs State Lows

Community

WunderPhotos

Upload Photos

1,781,542 photos uploaded!

WunderBlogs® & News

Nearby

Air Quality

  Air Quality AQ Index Pollutant
Not available.

Snow Depth

Station Depth Elevation

Earthquake Activity

City Distance Mag. Time & Date
Minimum magnitude displayed is 2.5.

Coastal Water Temperatures

Place Temperature

Nearby Weather Stations